createdAt,value
2018-02-11T09:09:40.790Z,40.00
2018-02-11T09:17:06.059Z,38.80
2018-02-11T09:19:33.584Z,38.60
2018-02-11T09:24:29.992Z,37.70
2018-02-11T09:29:26.363Z,38.20
2018-02-11T09:41:49.431Z,38.20
2018-02-11T09:44:16.944Z,37.40
2018-02-11T09:51:42.970Z,36.40
2018-02-11T09:56:40.107Z,36.80
2018-02-11T09:59:08.388Z,37.60
2018-02-11T10:01:36.718Z,36.40
2018-02-11T10:04:04.223Z,36.80
2018-02-11T10:06:32.494Z,35.90
2018-02-11T10:09:00.792Z,36.40
2018-02-11T10:11:28.306Z,36.20
2018-02-11T10:13:55.829Z,35.10
2018-02-11T10:16:23.339Z,35.60
2018-02-11T10:18:50.882Z,35.20
2018-02-11T10:21:18.387Z,35.00
2018-02-11T10:23:45.910Z,34.40
2018-02-11T10:26:13.419Z,34.20
2018-02-11T10:28:40.952Z,34.50
2018-02-11T10:31:08.475Z,34.10
2018-02-11T10:33:36.009Z,33.90
2018-02-11T10:36:03.524Z,33.20
2018-02-11T10:38:31.836Z,33.40
2018-02-11T10:40:59.343Z,33.50
2018-02-11T10:43:26.847Z,32.80
2018-02-11T10:45:54.401Z,33.30
2018-02-11T10:48:21.915Z,32.70
2018-02-11T10:50:49.442Z,33.70
2018-02-11T10:53:16.965Z,32.10
2018-02-11T10:55:45.255Z,32.40
2018-02-11T10:58:13.523Z,32.70
2018-02-11T11:00:41.811Z,32.90
2018-02-11T11:03:10.078Z,32.60
2018-02-11T11:05:38.359Z,33.50
2018-02-11T11:08:06.631Z,33.10
2018-02-11T11:10:34.918Z,34.10
2018-02-11T11:13:03.199Z,33.90
2018-02-11T11:15:30.723Z,34.10
2018-02-11T11:17:58.240Z,33.90
2018-02-11T11:20:25.800Z,33.50
2018-02-11T11:22:53.306Z,33.10
2018-02-11T11:25:20.822Z,33.80
2018-02-11T11:27:48.348Z,34.30
2018-02-11T11:30:16.622Z,33.70
2018-02-11T11:32:44.907Z,32.50
2018-02-11T11:35:13.187Z,33.20
2018-02-11T11:37:41.493Z,33.00
2018-02-11T11:40:08.998Z,33.00
2018-02-11T11:42:36.525Z,32.20
2018-02-11T11:45:04.043Z,32.40
2018-02-11T11:47:32.331Z,32.10
2018-02-11T11:49:59.855Z,32.10
2018-02-11T11:52:27.407Z,32.20
2018-02-11T11:54:54.917Z,31.90
2018-02-11T11:57:22.439Z,32.00
2018-02-11T11:59:49.947Z,32.20
2018-02-11T12:02:17.486Z,32.40
2018-02-11T12:04:45.751Z,32.80
2018-02-11T12:07:14.074Z,32.20
2018-02-11T12:09:41.584Z,32.40
2018-02-11T12:12:09.872Z,32.70
2018-02-11T12:14:38.159Z,33.10
2018-02-11T12:17:05.676Z,33.30
2018-02-11T12:19:33.203Z,32.80
2018-02-11T12:22:00.710Z,33.10
2018-02-11T12:24:28.237Z,32.40
2018-02-11T12:26:55.749Z,33.30
2018-02-11T12:31:52.138Z,32.50
2018-02-11T12:34:19.691Z,32.60
2018-02-11T12:36:47.199Z,32.30
2018-02-11T12:39:14.721Z,32.50
2018-02-11T12:41:42.241Z,32.60
2018-02-11T12:44:10.548Z,33.70
2018-02-11T12:46:38.062Z,34.60
2018-02-11T12:49:05.564Z,34.30
2018-02-11T12:51:33.092Z,34.10
2018-02-11T12:54:01.372Z,34.40
2018-02-11T12:56:29.665Z,34.80
2018-02-11T12:58:57.185Z,34.50
2018-02-11T13:01:24.699Z,34.10
2018-02-11T13:03:52.226Z,34.20
2018-02-11T13:06:20.524Z,33.80
2018-02-11T13:08:48.031Z,33.80
2018-02-11T13:11:15.559Z,34.00
2018-02-11T13:13:43.080Z,34.20
2018-02-11T13:16:11.375Z,33.80
2018-02-11T13:18:38.890Z,33.40
2018-02-11T13:21:06.412Z,34.10
2018-02-11T13:23:33.918Z,34.60
2018-02-11T13:26:01.460Z,35.10
2018-02-11T13:28:28.980Z,34.70
2018-02-11T13:30:56.497Z,34.80
2018-02-11T13:33:24.023Z,34.40
2018-02-11T13:35:51.532Z,34.70
2018-02-11T13:38:19.831Z,35.40
2018-02-11T13:40:47.348Z,35.30
2018-02-11T13:43:14.881Z,34.40
2018-02-11T13:45:42.387Z,35.10
2018-02-11T13:48:10.683Z,35.00
2018-02-11T13:50:38.953Z,35.40
2018-02-11T13:53:07.247Z,34.40
2018-02-11T13:55:34.754Z,34.50
2018-02-11T13:58:02.276Z,35.20
2018-02-11T14:00:29.779Z,34.60
2018-02-11T14:02:57.328Z,34.80
2018-02-11T14:07:58.754Z,35.90
2018-02-11T14:10:26.268Z,35.60
2018-02-11T14:12:53.783Z,36.10
2018-02-11T14:15:21.300Z,36.20
2018-02-11T14:17:48.816Z,35.50
2018-02-11T14:20:16.343Z,35.30
2018-02-11T14:22:44.634Z,36.10
2018-02-11T14:25:12.173Z,36.20
2018-02-11T14:27:40.454Z,35.80
2018-02-11T14:30:08.738Z,35.90
2018-02-11T14:32:37.008Z,35.20
2018-02-11T14:35:05.312Z,35.90
2018-02-11T14:37:32.823Z,36.00
2018-02-11T14:40:00.353Z,36.10
2018-02-11T14:42:27.868Z,35.50
2018-02-11T14:44:56.156Z,36.20
2018-02-11T14:47:23.693Z,36.20
2018-02-11T14:49:51.212Z,37.60
2018-02-11T14:52:18.722Z,36.90
2018-02-11T14:54:47.006Z,36.80
2018-02-11T14:57:15.288Z,37.50
2018-02-11T14:59:42.802Z,37.60
2018-02-11T15:02:10.327Z,36.80
2018-02-11T15:04:37.835Z,36.80
2018-02-11T15:07:05.365Z,37.20
2018-02-11T15:09:32.875Z,37.40
2018-02-11T15:12:01.168Z,37.40
2018-02-11T15:14:28.716Z,37.60
2018-02-11T15:16:57.009Z,38.20
2018-02-11T15:19:24.518Z,38.30
2018-02-11T15:21:52.047Z,38.60
2018-02-11T15:24:19.551Z,38.20
2018-02-11T15:26:47.074Z,39.00
2018-02-11T15:29:14.583Z,38.30
2018-02-11T15:31:42.878Z,38.80
2018-02-11T15:34:10.386Z,38.40
2018-02-11T15:36:37.910Z,38.40
2018-02-11T15:39:05.431Z,38.10
2018-02-11T15:41:32.950Z,38.60
2018-02-11T15:44:00.488Z,39.00
2018-02-11T15:46:27.995Z,39.50
2018-02-11T15:48:55.537Z,39.40
2018-02-11T15:51:23.048Z,39.00
2018-02-11T15:53:50.585Z,38.70
2018-02-11T15:56:18.092Z,39.00
2018-02-11T15:58:45.616Z,38.70
2018-02-11T16:01:13.887Z,40.10
2018-02-11T16:03:41.421Z,39.10
2018-02-11T16:06:08.956Z,40.40
2018-02-11T16:08:36.475Z,39.80
2018-02-11T16:11:04.747Z,40.80
2018-02-11T16:13:32.264Z,40.90
2018-02-11T16:15:59.763Z,41.20
2018-02-11T16:18:27.288Z,41.10
2018-02-11T16:20:54.791Z,42.00
2018-02-11T16:23:23.118Z,41.20
2018-02-11T16:25:50.619Z,41.00
2018-02-11T16:28:18.122Z,41.30
2018-02-11T16:30:45.647Z,41.80
2018-02-11T16:33:13.919Z,41.00
2018-02-11T16:35:41.447Z,41.40
2018-02-11T16:38:08.960Z,41.50
2018-02-11T16:40:37.256Z,41.30
2018-02-11T16:43:04.759Z,41.60
2018-02-11T16:45:32.296Z,41.80
2018-02-11T16:47:59.807Z,41.70
2018-02-11T16:50:28.104Z,41.80
2018-02-11T16:52:55.615Z,41.70
2018-02-11T16:55:23.138Z,42.20
2018-02-11T16:57:50.651Z,41.90
2018-02-11T17:00:18.176Z,41.50
2018-02-11T17:02:45.686Z,42.40
2018-02-11T17:05:13.965Z,42.40
2018-02-11T17:07:42.251Z,42.00
2018-02-11T17:10:10.522Z,41.90
2018-02-11T17:12:38.876Z,42.40
2018-02-11T17:15:06.390Z,42.20
2018-02-11T17:17:33.936Z,41.50
2018-02-11T17:20:01.449Z,42.00
2018-02-11T17:22:28.970Z,42.60
2018-02-11T17:24:56.474Z,42.80
2018-02-11T17:27:24.000Z,42.80
2018-02-11T17:29:51.524Z,43.10
2018-02-11T17:32:19.063Z,42.70
2018-02-11T17:34:46.568Z,42.50
2018-02-11T17:37:14.105Z,42.50
2018-02-11T17:39:42.383Z,42.20
2018-02-11T17:42:09.919Z,42.40
2018-02-11T17:44:37.429Z,42.30
2018-02-11T17:47:04.930Z,42.20
2018-02-11T17:49:32.456Z,41.30
2018-02-11T17:51:59.969Z,41.60
2018-02-11T17:54:28.246Z,42.30
2018-02-11T17:56:56.527Z,42.30
2018-02-11T17:59:24.818Z,42.20
2018-02-11T18:01:52.332Z,42.20
2018-02-11T18:04:19.856Z,42.40
2018-02-11T18:06:47.359Z,42.20
2018-02-11T18:09:14.887Z,42.10
2018-02-11T18:11:42.397Z,42.10
2018-02-11T18:14:10.688Z,42.10
2018-02-11T18:16:38.201Z,42.40
2018-02-11T18:19:05.731Z,42.20
2018-02-11T18:21:33.251Z,42.10
2018-02-11T18:24:01.614Z,43.20
2018-02-11T18:26:29.215Z,43.10
2018-02-11T18:28:56.744Z,42.30
2018-02-11T18:31:24.257Z,42.60
2018-02-11T18:33:51.808Z,42.10
2018-02-11T18:36:19.311Z,43.30
2018-02-11T18:38:46.819Z,42.30
2018-02-11T18:41:14.375Z,43.10
2018-02-11T18:43:41.903Z,43.30
2018-02-11T18:46:09.424Z,43.30
2018-02-11T18:48:36.935Z,42.90
2018-02-11T18:51:05.965Z,43.50
2018-02-11T18:58:32.007Z,44.50
